createdAt,value
2022-08-16T00:00:48.379Z,71.80
2022-08-16T00:03:41.525Z,72.00
2022-08-16T00:06:30.238Z,72.00
2022-08-16T00:09:18.235Z,72.20
2022-08-16T00:12:07.292Z,72.00
2022-08-16T00:14:56.487Z,72.40
2022-08-16T00:17:56.484Z,72.50
2022-08-16T00:20:49.182Z,72.50
2022-08-16T00:23:40.340Z,72.90
2022-08-16T00:26:37.410Z,72.40
2022-08-16T00:29:33.283Z,72.50
2022-08-16T00:32:22.759Z,72.50
2022-08-16T00:35:16.045Z,72.10
2022-08-16T00:38:41.431Z,72.60
2022-08-16T00:41:17.194Z,72.30
2022-08-16T00:44:11.158Z,71.80
2022-08-16T00:47:06.727Z,71.90
2022-08-16T00:49:57.142Z,72.10
2022-08-16T00:52:50.666Z,72.30
2022-08-16T00:55:47.124Z,72.60
2022-08-16T00:58:40.531Z,71.90
2022-08-16T01:01:32.785Z,72.30
2022-08-16T01:04:30.215Z,72.40
2022-08-16T01:07:19.034Z,72.70
2022-08-16T01:10:16.190Z,72.70
2022-08-16T01:13:12.489Z,72.90
2022-08-16T01:16:10.115Z,73.40
2022-08-16T01:19:03.202Z,73.30
2022-08-16T01:21:58.230Z,73.10
2022-08-16T01:25:11.556Z,72.50
2022-08-16T01:28:02.885Z,72.10
2022-08-16T01:30:55.826Z,72.30
2022-08-16T01:33:44.853Z,72.50
2022-08-16T01:36:38.909Z,72.70
2022-08-16T01:39:27.071Z,73.10
2022-08-16T01:42:17.893Z,73.00
2022-08-16T01:45:09.631Z,73.40
2022-08-16T01:47:57.643Z,73.80
2022-08-16T01:51:09.450Z,73.80
2022-08-16T01:53:56.722Z,73.60
2022-08-16T01:56:48.186Z,73.50
2022-08-16T01:59:41.333Z,73.60
2022-08-16T02:02:33.970Z,74.00
2022-08-16T02:05:31.021Z,73.90
2022-08-16T02:08:33.835Z,73.80
2022-08-16T02:11:23.773Z,73.70
2022-08-16T02:14:18.535Z,73.90
2022-08-16T02:17:13.487Z,72.90
2022-08-16T02:20:11.567Z,73.50
2022-08-16T02:23:05.779Z,73.10
2022-08-16T02:25:54.785Z,72.70
2022-08-16T02:28:45.326Z,72.90
2022-08-16T02:32:02.832Z,73.40
2022-08-16T02:34:45.582Z,73.30
2022-08-16T02:37:51.267Z,73.10
2022-08-16T02:40:42.917Z,73.30
2022-08-16T02:43:34.409Z,73.20
2022-08-16T02:46:30.207Z,74.00
2022-08-16T02:49:57.979Z,73.50
2022-08-16T02:52:33.399Z,73.90
2022-08-16T02:55:40.934Z,74.20
2022-08-16T02:58:33.500Z,73.80
2022-08-16T03:01:36.836Z,74.10
2022-08-16T03:04:51.079Z,74.40
2022-08-16T03:07:50.964Z,73.90
2022-08-16T03:10:39.871Z,74.10
2022-08-16T03:13:28.279Z,73.70
2022-08-16T03:16:37.939Z,74.30
2022-08-16T03:19:48.007Z,74.60
2022-08-16T03:22:36.759Z,74.60
2022-08-16T03:25:41.038Z,74.50
2022-08-16T03:28:33.369Z,75.20
2022-08-16T03:31:22.392Z,74.90
2022-08-16T03:34:10.538Z,75.20
2022-08-16T03:37:02.949Z,75.00
2022-08-16T03:39:56.898Z,75.40
2022-08-16T03:43:18.795Z,75.40
2022-08-16T03:46:02.000Z,75.60
2022-08-16T03:48:55.780Z,75.50
2022-08-16T03:51:45.344Z,75.20
2022-08-16T03:54:57.418Z,75.70
2022-08-16T03:57:52.241Z,75.60
2022-08-16T04:00:43.514Z,75.60
2022-08-16T04:03:36.737Z,75.60
2022-08-16T04:06:25.130Z,74.80
2022-08-16T04:09:15.825Z,74.80
2022-08-16T04:12:10.451Z,74.10
2022-08-16T04:15:03.576Z,74.90
2022-08-16T04:18:02.101Z,74.90
2022-08-16T04:20:51.276Z,75.50
2022-08-16T04:23:43.051Z,75.40
2022-08-16T04:26:32.329Z,75.20
2022-08-16T04:29:23.498Z,75.60
2022-08-16T04:32:13.947Z,75.70
2022-08-16T04:35:13.677Z,75.70
2022-08-16T04:38:11.090Z,76.00
2022-08-16T04:41:12.041Z,75.70
2022-08-16T04:44:01.098Z,74.90
2022-08-16T04:47:01.186Z,74.80
2022-08-16T04:49:52.698Z,75.30
2022-08-16T04:52:42.862Z,75.70
2022-08-16T04:55:38.003Z,76.50
2022-08-16T04:58:45.296Z,76.60
2022-08-16T05:01:58.992Z,76.80
2022-08-16T05:04:44.380Z,76.80
2022-08-16T05:07:32.536Z,85.10
2022-08-16T05:10:26.043Z,87.20
2022-08-16T05:13:15.712Z,89.70
2022-08-16T05:16:04.632Z,89.60
2022-08-16T05:18:58.394Z,90.00
2022-08-16T05:21:47.992Z,90.40
2022-08-16T05:24:40.533Z,90.10
2022-08-16T05:27:33.406Z,89.80
2022-08-16T05:30:35.224Z,90.20
2022-08-16T05:33:29.605Z,90.30
2022-08-16T05:36:20.892Z,90.80
2022-08-16T05:39:11.502Z,90.70
2022-08-16T05:41:59.817Z,90.80
2022-08-16T05:44:49.315Z,91.00
2022-08-16T05:47:43.191Z,91.30
2022-08-16T05:50:36.226Z,91.50
2022-08-16T05:53:26.444Z,92.20
2022-08-16T05:56:37.507Z,92.10
2022-08-16T05:59:27.441Z,92.20
2022-08-16T06:02:19.540Z,92.70
2022-08-16T06:05:10.855Z,92.90
2022-08-16T06:08:01.859Z,93.10
2022-08-16T06:11:09.652Z,93.20
2022-08-16T06:14:02.583Z,93.30
2022-08-16T06:17:09.656Z,93.90
2022-08-16T06:20:06.605Z,93.70
2022-08-16T06:22:58.781Z,94.30
2022-08-16T06:26:10.997Z,94.20
2022-08-16T06:29:08.116Z,94.40
2022-08-16T06:32:00.463Z,94.50
2022-08-16T06:34:57.328Z,94.80
2022-08-16T06:37:57.138Z,94.90
2022-08-16T06:41:05.015Z,95.50
2022-08-16T06:43:55.703Z,94.90
2022-08-16T06:46:50.881Z,95.20
2022-08-16T06:49:44.197Z,94.70
2022-08-16T06:53:00.505Z,95.20
2022-08-16T06:55:53.742Z,95.00
2022-08-16T06:58:45.031Z,95.90
2022-08-16T07:01:43.129Z,96.20
2022-08-16T07:04:59.123Z,96.60
2022-08-16T07:08:17.989Z,96.80
2022-08-16T07:11:12.654Z,96.80
2022-08-16T07:14:23.877Z,96.10
2022-08-16T07:17:12.891Z,96.80
2022-08-16T07:20:30.275Z,96.60
2022-08-16T07:23:37.036Z,96.70
2022-08-16T07:26:29.415Z,96.20
2022-08-16T07:29:19.373Z,95.90
2022-08-16T07:32:11.576Z,95.70
2022-08-16T07:35:01.008Z,94.70
2022-08-16T07:37:53.222Z,94.60
2022-08-16T07:41:01.471Z,94.20
2022-08-16T07:43:53.743Z,93.90
2022-08-16T07:47:11.247Z,94.00
2022-08-16T07:50:07.710Z,92.80
2022-08-16T07:52:56.364Z,93.80
2022-08-16T07:55:49.120Z,94.90
2022-08-16T07:58:45.189Z,94.70
2022-08-16T08:01:38.595Z,95.10
2022-08-16T08:04:32.469Z,95.10
2022-08-16T08:07:22.974Z,95.20
2022-08-16T08:10:29.409Z,93.70
2022-08-16T08:13:20.279Z,93.40
2022-08-16T08:16:30.742Z,94.80
2022-08-16T08:19:23.658Z,95.30
2022-08-16T08:22:16.292Z,94.90
2022-08-16T08:25:16.199Z,93.60
2022-08-16T08:28:06.333Z,93.70
2022-08-16T08:31:03.750Z,94.70
2022-08-16T08:33:56.893Z,93.40
2022-08-16T08:36:54.396Z,94.20
2022-08-16T08:39:58.191Z,93.90
2022-08-16T08:42:48.101Z,92.90
2022-08-16T08:45:48.428Z,92.20
2022-08-16T08:48:37.706Z,92.40
2022-08-16T08:51:35.524Z,91.30
2022-08-16T08:54:26.408Z,90.90
2022-08-16T08:57:18.715Z,90.00
2022-08-16T09:00:51.259Z,91.40
2022-08-16T09:03:41.515Z,90.80
2022-08-16T09:06:31.671Z,92.20
2022-08-16T09:09:21.522Z,90.50
2022-08-16T09:12:31.230Z,90.80
2022-08-16T09:15:32.538Z,90.70
2022-08-16T09:18:26.778Z,89.70
2022-08-16T09:21:31.342Z,89.40
2022-08-16T09:24:51.474Z,89.50
2022-08-16T09:27:29.975Z,91.20
2022-08-16T09:30:43.940Z,89.50
2022-08-16T09:33:37.202Z,90.00
2022-08-16T09:36:31.800Z,87.80
2022-08-16T09:39:21.797Z,87.60
2022-08-16T09:42:10.567Z,88.40
2022-08-16T09:45:11.822Z,89.00
2022-08-16T09:48:06.815Z,85.10
2022-08-16T09:50:56.116Z,86.50
2022-08-16T09:53:44.035Z,85.00
2022-08-16T09:56:52.273Z,84.40
2022-08-16T09:59:42.093Z,83.70
2022-08-16T10:02:32.137Z,86.00
2022-08-16T10:05:21.439Z,86.90
2022-08-16T10:08:26.399Z,83.80
2022-08-16T10:11:32.372Z,82.00
2022-08-16T10:14:37.981Z,82.10
2022-08-16T10:17:26.452Z,84.80
2022-08-16T10:20:18.726Z,83.30
2022-08-16T10:23:09.825Z,84.90
2022-08-16T10:27:00.650Z,82.00
2022-08-16T10:29:13.254Z,82.80
2022-08-16T10:32:08.598Z,84.30
2022-08-16T10:34:56.693Z,83.50
2022-08-16T10:37:46.412Z,84.00
2022-08-16T10:40:34.487Z,83.90
2022-08-16T10:43:23.627Z,83.60
2022-08-16T10:46:39.783Z,81.60
2022-08-16T10:49:22.077Z,79.10
2022-08-16T10:52:18.951Z,79.10
2022-08-16T10:58:20.760Z,76.60
2022-08-16T11:01:43.829Z,77.70
2022-08-16T11:07:43.789Z,78.70
2022-08-16T11:14:10.943Z,76.60
2022-08-16T11:17:10.798Z,75.30
2022-08-16T11:20:01.158Z,76.90
2022-08-16T11:23:07.455Z,75.10
2022-08-16T11:26:16.235Z,74.00
2022-08-16T11:29:15.257Z,73.30
2022-08-16T11:32:05.480Z,72.80
2022-08-16T11:35:11.222Z,73.90
2022-08-16T11:38:46.725Z,76.90
2022-08-16T11:41:15.742Z,74.50
2022-08-16T11:44:03.778Z,73.40
2022-08-16T11:46:51.684Z,73.70
2022-08-16T11:49:41.445Z,76.90
2022-08-16T11:52:28.901Z,75.90
2022-08-16T11:55:17.881Z,74.90
2022-08-16T11:58:10.882Z,75.40
2022-08-16T12:00:59.559Z,73.10
2022-08-16T12:03:47.498Z,71.70
2022-08-16T12:06:34.782Z,71.30
2022-08-16T12:09:24.764Z,74.20
2022-08-16T12:12:12.376Z,75.20
2022-08-16T12:15:01.131Z,74.80
2022-08-16T12:17:49.706Z,75.10
2022-08-16T12:20:42.086Z,75.20
2022-08-16T12:23:33.300Z,75.70
2022-08-16T12:26:23.448Z,73.70
2022-08-16T12:29:12.381Z,75.00
2022-08-16T12:32:27.015Z,76.00
2022-08-16T12:35:14.717Z,71.20
2022-08-16T12:38:38.063Z,70.70
2022-08-16T12:41:13.592Z,71.20
2022-08-16T12:44:11.802Z,69.20
2022-08-16T12:47:26.635Z,68.90
2022-08-16T12:50:15.721Z,67.90
2022-08-16T12:53:03.817Z,68.80
2022-08-16T12:55:52.920Z,68.90
2022-08-16T12:58:48.661Z,68.60
2022-08-16T13:01:41.743Z,68.30
2022-08-16T13:04:34.047Z,69.30
2022-08-16T13:07:27.190Z,68.30
2022-08-16T13:10:21.538Z,68.90
2022-08-16T13:13:27.323Z,71.10
2022-08-16T13:16:20.702Z,72.50
2022-08-16T13:19:12.274Z,68.50
2022-08-16T13:22:01.024Z,70.10
2022-08-16T13:24:51.278Z,69.60
2022-08-16T13:28:02.019Z,69.50
2022-08-16T13:30:51.647Z,71.10
2022-08-16T13:33:39.055Z,71.70
2022-08-16T13:36:47.847Z,68.50
2022-08-16T13:39:36.691Z,69.10
2022-08-16T13:42:27.982Z,69.90
2022-08-16T13:45:17.342Z,67.80
2022-08-16T13:48:07.048Z,69.70
2022-08-16T13:50:57.442Z,69.60
2022-08-16T13:53:59.757Z,71.50
2022-08-16T13:56:52.152Z,71.70
2022-08-16T13:59:43.493Z,72.00
2022-08-16T14:02:33.083Z,69.00
2022-08-16T14:05:22.051Z,67.40
2022-08-16T14:08:09.931Z,69.40
2022-08-16T14:10:57.448Z,67.80
2022-08-16T14:13:47.669Z,68.80
2022-08-16T14:16:35.608Z,69.40
2022-08-16T14:19:23.354Z,70.30
2022-08-16T14:22:30.753Z,69.90
2022-08-16T14:25:22.805Z,68.40
2022-08-16T14:28:10.449Z,69.10
2022-08-16T14:31:01.750Z,68.70
2022-08-16T14:33:51.101Z,67.50
2022-08-16T14:36:40.874Z,65.40
2022-08-16T14:39:30.019Z,68.00
2022-08-16T14:42:21.441Z,65.60
2022-08-16T14:45:11.637Z,64.70
2022-08-16T14:48:02.859Z,66.50
2022-08-16T14:50:52.033Z,68.20
2022-08-16T14:53:45.136Z,66.60
2022-08-16T14:56:42.599Z,67.00
2022-08-16T14:59:30.799Z,68.00
2022-08-16T15:02:34.366Z,68.10
2022-08-16T15:05:27.256Z,68.00
2022-08-16T15:08:17.790Z,67.80
2022-08-16T15:11:08.088Z,69.60
2022-08-16T15:13:55.813Z,68.60
2022-08-16T15:16:43.401Z,68.60
2022-08-16T15:19:33.904Z,68.90
2022-08-16T15:22:30.347Z,67.50
2022-08-16T15:25:21.825Z,69.30
2022-08-16T15:28:31.279Z,68.30
2022-08-16T15:31:20.039Z,70.50
2022-08-16T15:34:07.643Z,69.60
2022-08-16T15:37:00.658Z,69.60
2022-08-16T15:39:55.966Z,68.80
2022-08-16T15:42:54.108Z,67.60
2022-08-16T15:45:59.169Z,67.90
2022-08-16T15:48:46.373Z,68.70
2022-08-16T15:51:33.848Z,68.50
2022-08-16T15:54:31.083Z,68.80
2022-08-16T15:57:22.801Z,69.10
2022-08-16T16:00:14.584Z,68.60
2022-08-16T16:03:08.593Z,68.40
2022-08-16T16:06:00.863Z,67.20
2022-08-16T16:08:49.090Z,68.10
2022-08-16T16:11:39.029Z,68.40
2022-08-16T16:14:30.032Z,69.00
2022-08-16T16:17:18.791Z,68.60
2022-08-16T16:20:08.161Z,68.50
2022-08-16T16:23:11.105Z,68.80
2022-08-16T16:26:00.348Z,68.80
2022-08-16T16:29:07.489Z,68.50
2022-08-16T16:32:05.790Z,69.30
2022-08-16T16:34:53.616Z,69.00
2022-08-16T16:37:43.828Z,70.00
2022-08-16T16:40:33.386Z,69.90
2022-08-16T16:43:25.917Z,68.80
2022-08-16T16:46:42.250Z,68.30
2022-08-16T16:49:33.893Z,69.70
2022-08-16T16:52:43.570Z,69.20
2022-08-16T16:55:29.694Z,69.50
2022-08-16T16:58:36.728Z,69.90
2022-08-16T17:01:56.633Z,69.20
2022-08-16T17:04:35.562Z,70.20
2022-08-16T17:07:24.363Z,70.30
2022-08-16T17:10:13.259Z,70.10
2022-08-16T17:13:23.000Z,69.60
2022-08-16T17:16:18.389Z,69.20
2022-08-16T17:19:16.878Z,70.00
2022-08-16T17:22:14.329Z,69.60
2022-08-16T17:25:03.202Z,69.50
2022-08-16T17:27:55.786Z,70.50
2022-08-16T17:30:46.137Z,70.60
2022-08-16T17:33:36.866Z,70.30
2022-08-16T17:36:36.658Z,71.60
2022-08-16T17:39:29.156Z,71.40
2022-08-16T17:42:18.047Z,70.50
2022-08-16T17:45:06.277Z,71.50
2022-08-16T17:47:54.590Z,71.00
2022-08-16T17:50:43.404Z,71.50
2022-08-16T17:53:31.838Z,71.50
2022-08-16T17:56:21.231Z,71.30
2022-08-16T17:59:08.848Z,71.60
2022-08-16T18:01:56.322Z,71.80
2022-08-16T18:04:48.469Z,71.60
2022-08-16T18:07:37.432Z,72.10
2022-08-16T18:10:32.778Z,71.90
2022-08-16T18:13:25.044Z,71.70
2022-08-16T18:16:15.906Z,72.10
2022-08-16T18:19:03.225Z,72.30
2022-08-16T18:22:08.104Z,72.60
2022-08-16T18:24:55.941Z,72.20
2022-08-16T18:27:43.348Z,71.80
2022-08-16T18:30:32.099Z,71.50
2022-08-16T18:33:21.100Z,70.80
2022-08-16T18:36:20.700Z,70.80
2022-08-16T18:39:10.359Z,70.80
2022-08-16T18:41:57.600Z,70.30
2022-08-16T18:44:45.987Z,70.20
2022-08-16T18:47:35.051Z,70.90
2022-08-16T18:50:24.025Z,71.10
2022-08-16T18:53:15.809Z,70.30
2022-08-16T18:56:04.565Z,69.80
2022-08-16T18:58:52.129Z,69.50
2022-08-16T19:01:39.825Z,69.20
2022-08-16T19:04:55.098Z,69.00
2022-08-16T19:07:36.441Z,69.60
2022-08-16T19:10:24.380Z,69.60
2022-08-16T19:13:16.257Z,69.30
2022-08-16T19:16:05.838Z,69.40
2022-08-16T19:18:53.406Z,69.10
2022-08-16T19:21:42.277Z,70.40
2022-08-16T19:24:29.994Z,70.50
2022-08-16T19:27:17.294Z,71.00
2022-08-16T19:30:08.990Z,71.30
2022-08-16T19:32:56.821Z,72.10
2022-08-16T19:35:44.458Z,71.50
2022-08-16T19:38:33.824Z,71.50
2022-08-16T19:41:21.489Z,71.90
2022-08-16T19:44:10.001Z,72.00
2022-08-16T19:46:58.014Z,72.40
2022-08-16T19:49:45.982Z,72.60
2022-08-16T19:52:34.128Z,72.80
2022-08-16T19:55:22.861Z,72.90
2022-08-16T19:58:13.990Z,73.40
2022-08-16T20:01:01.792Z,73.40
2022-08-16T20:03:49.202Z,73.00
2022-08-16T20:06:38.391Z,72.50
2022-08-16T20:09:26.583Z,71.10
2022-08-16T20:12:18.419Z,71.20
2022-08-16T20:15:09.354Z,72.70
2022-08-16T20:17:58.290Z,71.60
2022-08-16T20:20:47.921Z,72.50
2022-08-16T20:23:35.587Z,72.80
2022-08-16T20:26:28.599Z,73.50
2022-08-16T20:29:17.896Z,73.10
2022-08-16T20:32:09.255Z,73.10
2022-08-16T20:34:58.055Z,73.50
2022-08-16T20:37:47.725Z,73.70
2022-08-16T20:40:36.168Z,73.50
2022-08-16T20:43:24.358Z,73.90
2022-08-16T20:46:13.699Z,73.40
2022-08-16T20:49:02.250Z,71.90
2022-08-16T20:51:55.817Z,72.00
2022-08-16T20:54:44.232Z,72.50
2022-08-16T20:57:32.434Z,71.20
2022-08-16T21:00:21.773Z,72.20
2022-08-16T21:03:13.966Z,73.00
2022-08-16T21:06:03.308Z,73.30
2022-08-16T21:08:54.146Z,73.40
2022-08-16T21:11:42.238Z,72.30
2022-08-16T21:14:34.144Z,72.90
2022-08-16T21:17:22.162Z,73.40
2022-08-16T21:20:12.687Z,73.70
2022-08-16T21:23:05.377Z,72.50
2022-08-16T21:25:58.881Z,72.80
2022-08-16T21:28:47.535Z,73.00
2022-08-16T21:31:35.737Z,72.60
2022-08-16T21:34:23.629Z,73.70
2022-08-16T21:37:15.707Z,72.60
2022-08-16T21:40:04.304Z,74.00
2022-08-16T21:42:52.329Z,74.20
2022-08-16T21:45:41.278Z,72.60
2022-08-16T21:48:34.464Z,73.10
2022-08-16T21:51:23.510Z,72.90
2022-08-16T21:54:13.088Z,73.00
2022-08-16T21:57:01.126Z,71.10
2022-08-16T21:59:51.246Z,70.70
2022-08-16T22:02:39.167Z,72.30
2022-08-16T22:05:27.656Z,73.00
2022-08-16T22:08:16.901Z,73.60
2022-08-16T22:11:09.239Z,73.40
2022-08-16T22:13:59.427Z,73.80
2022-08-16T22:16:47.390Z,72.20
2022-08-16T22:19:35.534Z,73.20
2022-08-16T22:22:23.553Z,72.80
2022-08-16T22:25:23.125Z,72.50
2022-08-16T22:28:13.625Z,73.60
2022-08-16T22:31:02.360Z,74.20
2022-08-16T22:33:50.184Z,74.20
2022-08-16T22:36:39.004Z,74.50
2022-08-16T22:39:26.885Z,74.30
2022-08-16T22:42:14.669Z,74.30
2022-08-16T22:45:08.587Z,74.50
2022-08-16T22:47:56.975Z,74.60
2022-08-16T22:50:45.721Z,74.20
2022-08-16T22:53:33.952Z,74.00
2022-08-16T22:56:26.462Z,74.10
2022-08-16T22:59:14.875Z,74.30
2022-08-16T23:02:06.747Z,73.40
2022-08-16T23:04:55.116Z,74.50
2022-08-16T23:07:43.093Z,74.70
2022-08-16T23:10:31.300Z,74.70
2022-08-16T23:13:20.792Z,74.40
2022-08-16T23:16:11.261Z,75.60
2022-08-16T23:19:00.752Z,75.30
2022-08-16T23:21:49.522Z,73.90
2022-08-16T23:24:56.130Z,73.90
2022-08-16T23:27:44.944Z,74.50
2022-08-16T23:30:36.786Z,74.70
2022-08-16T23:33:30.127Z,74.70
2022-08-16T23:36:19.122Z,74.50
2022-08-16T23:39:07.317Z,74.50
2022-08-16T23:41:55.688Z,75.10
2022-08-16T23:44:58.991Z,75.00
2022-08-16T23:47:47.449Z,75.00
2022-08-16T23:50:38.755Z,74.30
2022-08-16T23:53:30.228Z,75.00
2022-08-16T23:56:21.498Z,74.00
2022-08-16T23:59:09.567Z,75.20
